sensor_id;sensor_type;location;lat;lon;timestamp;pressure;altitude;pressure_sealevel;temperature;humidity
26376;BME280;30544;42.196;24.336;2024-02-21T00:00:26;99911.88;;;9.34;76.25
26376;BME280;30544;42.196;24.336;2024-02-21T00:02:53;99911.84;;;9.41;76.20
26376;BME280;30544;42.196;24.336;2024-02-21T00:05:20;99904.78;;;9.45;76.58
26376;BME280;30544;42.196;24.336;2024-02-21T00:07:46;99907.09;;;9.48;76.00
26376;BME280;30544;42.196;24.336;2024-02-21T00:10:14;99908.34;;;9.52;75.63
26376;BME280;30544;42.196;24.336;2024-02-21T00:12:41;99901.72;;;9.53;75.71
26376;BME280;30544;42.196;24.336;2024-02-21T00:15:22;99901.06;;;9.57;76.28
26376;BME280;30544;42.196;24.336;2024-02-21T00:17:49;99906.38;;;9.59;76.68
26376;BME280;30544;42.196;24.336;2024-02-21T00:20:15;99892.91;;;9.62;76.65
26376;BME280;30544;42.196;24.336;2024-02-21T00:22:42;99889.47;;;9.67;76.51
26376;BME280;30544;42.196;24.336;2024-02-21T00:25:09;99892.84;;;9.69;75.66
26376;BME280;30544;42.196;24.336;2024-02-21T00:27:37;99887.94;;;9.71;75.71
26376;BME280;30544;42.196;24.336;2024-02-21T00:30:04;99882.16;;;9.73;76.57
26376;BME280;30544;42.196;24.336;2024-02-21T00:32:31;99881.97;;;9.74;76.71
26376;BME280;30544;42.196;24.336;2024-02-21T00:34:59;99881.28;;;9.79;76.39
26376;BME280;30544;42.196;24.336;2024-02-21T00:37:26;99873.34;;;9.82;76.80
26376;BME280;30544;42.196;24.336;2024-02-21T00:39:53;99871.66;;;9.81;76.60
26376;BME280;30544;42.196;24.336;2024-02-21T00:42:20;99880.19;;;9.80;77.08
26376;BME280;30544;42.196;24.336;2024-02-21T00:44:48;99866.19;;;9.75;76.65
26376;BME280;30544;42.196;24.336;2024-02-21T00:47:14;99873.19;;;9.77;76.60
26376;BME280;30544;42.196;24.336;2024-02-21T00:49:41;99864.19;;;9.82;77.33
26376;BME280;30544;42.196;24.336;2024-02-21T00:52:08;99865.03;;;9.82;77.61
26376;BME280;30544;42.196;24.336;2024-02-21T00:54:34;99861.19;;;9.83;76.56
26376;BME280;30544;42.196;24.336;2024-02-21T00:57:01;99865.88;;;9.83;76.89
26376;BME280;30544;42.196;24.336;2024-02-21T00:59:27;99861.66;;;9.80;77.43
26376;BME280;30544;42.196;24.336;2024-02-21T01:01:55;99857.41;;;9.78;77.21
26376;BME280;30544;42.196;24.336;2024-02-21T01:04:22;99859.56;;;9.76;77.79
26376;BME280;30544;42.196;24.336;2024-02-21T01:06:49;99856.16;;;9.74;77.27
26376;BME280;30544;42.196;24.336;2024-02-21T01:09:16;99854.88;;;9.76;76.93
26376;BME280;30544;42.196;24.336;2024-02-21T01:11:42;99857.88;;;9.75;77.06
26376;BME280;30544;42.196;24.336;2024-02-21T01:14:09;99846.56;;;9.76;76.85
26376;BME280;30544;42.196;24.336;2024-02-21T01:16:36;99855.25;;;9.80;76.88
26376;BME280;30544;42.196;24.336;2024-02-21T01:19:04;99851.66;;;9.79;77.04
26376;BME280;30544;42.196;24.336;2024-02-21T01:21:30;99853.81;;;9.77;77.57
26376;BME280;30544;42.196;24.336;2024-02-21T01:23:57;99853.13;;;9.82;77.17
26376;BME280;30544;42.196;24.336;2024-02-21T01:26:23;99850.09;;;9.83;77.98
26376;BME280;30544;42.196;24.336;2024-02-21T01:28:50;99843.50;;;9.84;77.06
26376;BME280;30544;42.196;24.336;2024-02-21T01:31:17;99851.56;;;9.86;77.05
26376;BME280;30544;42.196;24.336;2024-02-21T01:33:43;99847.50;;;9.88;77.21
26376;BME280;30544;42.196;24.336;2024-02-21T01:36:12;99849.19;;;9.89;77.08
26376;BME280;30544;42.196;24.336;2024-02-21T01:38:38;99850.69;;;9.92;76.83
26376;BME280;30544;42.196;24.336;2024-02-21T01:41:05;99842.81;;;9.89;76.78
26376;BME280;30544;42.196;24.336;2024-02-21T01:43:31;99841.53;;;9.91;76.78
26376;BME280;30544;42.196;24.336;2024-02-21T01:45:58;99838.94;;;9.90;76.43
26376;BME280;30544;42.196;24.336;2024-02-21T01:48:25;99841.09;;;9.88;76.33
26376;BME280;30544;42.196;24.336;2024-02-21T01:50:52;99834.47;;;9.89;76.61
26376;BME280;30544;42.196;24.336;2024-02-21T01:53:22;99833.03;;;9.86;76.17
26376;BME280;30544;42.196;24.336;2024-02-21T01:55:49;99833.50;;;9.83;76.07
26376;BME280;30544;42.196;24.336;2024-02-21T01:58:16;99832.41;;;9.84;76.99
26376;BME280;30544;42.196;24.336;2024-02-21T02:00:43;99831.31;;;9.85;76.40
26376;BME280;30544;42.196;24.336;2024-02-21T02:03:10;99835.19;;;9.84;76.29
26376;BME280;30544;42.196;24.336;2024-02-21T02:05:42;99839.03;;;9.83;76.64
26376;BME280;30544;42.196;24.336;2024-02-21T02:08:08;99838.66;;;9.80;76.18
26376;BME280;30544;42.196;24.336;2024-02-21T02:10:36;99832.25;;;9.79;76.27
26376;BME280;30544;42.196;24.336;2024-02-21T02:13:02;99842.72;;;9.77;75.82
26376;BME280;30544;42.196;24.336;2024-02-21T02:15:37;99832.72;;;9.76;75.67
26376;BME280;30544;42.196;24.336;2024-02-21T02:18:03;99823.38;;;9.71;75.69
26376;BME280;30544;42.196;24.336;2024-02-21T02:20:30;99833.59;;;9.70;75.02
26376;BME280;30544;42.196;24.336;2024-02-21T02:22:56;99827.84;;;9.72;75.63
26376;BME280;30544;42.196;24.336;2024-02-21T02:25:25;99831.88;;;9.76;74.86
26376;BME280;30544;42.196;24.336;2024-02-21T02:27:53;99825.25;;;9.77;74.86
26376;BME280;30544;42.196;24.336;2024-02-21T02:30:19;99831.19;;;9.80;74.61
26376;BME280;30544;42.196;24.336;2024-02-21T02:32:46;99825.03;;;9.78;74.79
26376;BME280;30544;42.196;24.336;2024-02-21T02:35:13;99822.63;;;9.82;74.32
26376;BME280;30544;42.196;24.336;2024-02-21T02:37:39;99816.63;;;9.85;74.29
26376;BME280;30544;42.196;24.336;2024-02-21T02:40:06;99814.72;;;9.85;74.33
26376;BME280;30544;42.196;24.336;2024-02-21T02:42:34;99817.63;;;9.90;74.42
26376;BME280;30544;42.196;24.336;2024-02-21T02:45:01;99817.63;;;9.90;74.05
26376;BME280;30544;42.196;24.336;2024-02-21T02:47:30;99815.72;;;9.91;74.15
26376;BME280;30544;42.196;24.336;2024-02-21T02:49:56;99820.63;;;9.89;74.67
26376;BME280;30544;42.196;24.336;2024-02-21T02:52:23;99814.25;;;9.88;74.58
26376;BME280;30544;42.196;24.336;2024-02-21T02:54:49;99814.56;;;9.80;74.26
26376;BME280;30544;42.196;24.336;2024-02-21T02:57:17;99815.03;;;9.77;74.65
26376;BME280;30544;42.196;24.336;2024-02-21T02:59:48;99820.13;;;9.74;74.36
26376;BME280;30544;42.196;24.336;2024-02-21T03:02:15;99821.03;;;9.74;74.95
26376;BME280;30544;42.196;24.336;2024-02-21T03:04:41;99825.91;;;9.72;74.57
26376;BME280;30544;42.196;24.336;2024-02-21T03:07:08;99824.22;;;9.71;74.04
26376;BME280;30544;42.196;24.336;2024-02-21T03:09:34;99828.53;;;9.67;73.98
26376;BME280;30544;42.196;24.336;2024-02-21T03:12:01;99815.75;;;9.66;74.25
26376;BME280;30544;42.196;24.336;2024-02-21T03:14:28;99818.53;;;9.66;74.10
26376;BME280;30544;42.196;24.336;2024-02-21T03:16:56;99823.44;;;9.64;74.66
26376;BME280;30544;42.196;24.336;2024-02-21T03:19:23;99822.84;;;9.62;74.92
26376;BME280;30544;42.196;24.336;2024-02-21T03:21:49;99825.63;;;9.55;74.29
26376;BME280;30544;42.196;24.336;2024-02-21T03:24:16;99824.03;;;9.48;74.67
26376;BME280;30544;42.196;24.336;2024-02-21T03:26:44;99830.88;;;9.45;75.79
26376;BME280;30544;42.196;24.336;2024-02-21T03:29:11;99824.47;;;9.45;75.30
26376;BME280;30544;42.196;24.336;2024-02-21T03:31:38;99817.91;;;9.39;75.95
26376;BME280;30544;42.196;24.336;2024-02-21T03:34:05;99823.25;;;9.41;76.15
26376;BME280;30544;42.196;24.336;2024-02-21T03:36:32;99821.09;;;9.43;75.35
26376;BME280;30544;42.196;24.336;2024-02-21T03:38:58;99818.75;;;9.40;75.58
26376;BME280;30544;42.196;24.336;2024-02-21T03:41:25;99825.81;;;9.35;75.33
26376;BME280;30544;42.196;24.336;2024-02-21T03:43:51;99823.66;;;9.38;75.35
26376;BME280;30544;42.196;24.336;2024-02-21T03:46:18;99817.69;;;9.41;76.19
26376;BME280;30544;42.196;24.336;2024-02-21T03:48:44;99824.94;;;9.42;76.38
26376;BME280;30544;42.196;24.336;2024-02-21T03:51:12;99812.56;;;9.44;75.65
26376;BME280;30544;42.196;24.336;2024-02-21T03:53:40;99818.31;;;9.43;75.92
26376;BME280;30544;42.196;24.336;2024-02-21T03:56:06;99818.47;;;9.48;76.54
26376;BME280;30544;42.196;24.336;2024-02-21T03:58:33;99822.94;;;9.49;75.95
26376;BME280;30544;42.196;24.336;2024-02-21T04:00:59;99819.72;;;9.52;75.48
26376;BME280;30544;42.196;24.336;2024-02-21T04:03:26;99819.09;;;9.50;75.71
26376;BME280;30544;42.196;24.336;2024-02-21T04:05:53;99821.63;;;9.51;76.15
26376;BME280;30544;42.196;24.336;2024-02-21T04:08:21;99821.19;;;9.54;75.23
26376;BME280;30544;42.196;24.336;2024-02-21T04:10:47;99813.06;;;9.59;75.30
26376;BME280;30544;42.196;24.336;2024-02-21T04:13:14;99820.06;;;9.62;75.19
26376;BME280;30544;42.196;24.336;2024-02-21T04:15:40;99830.69;;;9.65;75.10
26376;BME280;30544;42.196;24.336;2024-02-21T04:18:07;99826.00;;;9.65;75.13
26376;BME280;30544;42.196;24.336;2024-02-21T04:20:33;99825.75;;;9.67;75.52
26376;BME280;30544;42.196;24.336;2024-02-21T04:23:00;99818.53;;;9.66;75.10
26376;BME280;30544;42.196;24.336;2024-02-21T04:25:28;99831.28;;;9.67;75.28
26376;BME280;30544;42.196;24.336;2024-02-21T04:27:55;99826.00;;;9.65;75.29
26376;BME280;30544;42.196;24.336;2024-02-21T04:30:21;99823.22;;;9.65;75.04
26376;BME280;30544;42.196;24.336;2024-02-21T04:32:48;99823.00;;;9.67;75.50
26376;BME280;30544;42.196;24.336;2024-02-21T04:35:14;99832.38;;;9.66;74.95
26376;BME280;30544;42.196;24.336;2024-02-21T04:37:41;99834.06;;;9.67;74.89
26376;BME280;30544;42.196;24.336;2024-02-21T04:40:08;99838.53;;;9.68;74.84
26376;BME280;30544;42.196;24.336;2024-02-21T04:42:36;99837.91;;;9.66;74.38
26376;BME280;30544;42.196;24.336;2024-02-21T04:45:03;99825.13;;;9.65;74.37
26376;BME280;30544;42.196;24.336;2024-02-21T04:47:30;99827.28;;;9.63;74.06
26376;BME280;30544;42.196;24.336;2024-02-21T04:49:56;99828.59;;;9.60;73.47
26376;BME280;30544;42.196;24.336;2024-02-21T04:52:23;99832.69;;;9.58;73.72
26376;BME280;30544;42.196;24.336;2024-02-21T04:54:49;99826.91;;;9.59;73.24
26376;BME280;30544;42.196;24.336;2024-02-21T04:57:17;99828.13;;;9.63;72.60
26376;BME280;30544;42.196;24.336;2024-02-21T04:59:44;99839.38;;;9.69;72.57
26376;BME280;30544;42.196;24.336;2024-02-21T05:02:12;99830.84;;;9.70;72.33
26376;BME280;30544;42.196;24.336;2024-02-21T05:04:39;99832.94;;;9.75;71.66
26376;BME280;30544;42.196;24.336;2024-02-21T05:07:06;99837.66;;;9.74;72.36
26376;BME280;30544;42.196;24.336;2024-02-21T05:09:33;99838.25;;;9.76;71.94
26376;BME280;30544;42.196;24.336;2024-02-21T05:11:59;99841.41;;;9.80;71.20
26376;BME280;30544;42.196;24.336;2024-02-21T05:14:26;99839.41;;;9.87;71.24
26376;BME280;30544;42.196;24.336;2024-02-21T05:16:54;99840.50;;;9.86;71.26
26376;BME280;30544;42.196;24.336;2024-02-21T05:19:21;99839.63;;;9.85;71.23
26376;BME280;30544;42.196;24.336;2024-02-21T05:21:47;99839.03;;;9.83;71.56
26376;BME280;30544;42.196;24.336;2024-02-21T05:24:14;99841.34;;;9.86;70.99
26376;BME280;30544;42.196;24.336;2024-02-21T05:26:40;99843.25;;;9.86;71.30
26376;BME280;30544;42.196;24.336;2024-02-21T05:29:07;99844.56;;;9.83;70.68
26376;BME280;30544;42.196;24.336;2024-02-21T05:31:42;99846.22;;;9.91;70.43
26376;BME280;30544;42.196;24.336;2024-02-21T05:34:22;99846.75;;;10.00;70.87
26376;BME280;30544;42.196;24.336;2024-02-21T05:36:48;99862.06;;;10.02;70.55
26376;BME280;30544;42.196;24.336;2024-02-21T05:39:15;99859.69;;;10.06;69.50
26376;BME280;30544;42.196;24.336;2024-02-21T05:41:42;99864.16;;;10.07;70.36
26376;BME280;30544;42.196;24.336;2024-02-21T05:44:09;99869.69;;;10.07;70.29
26376;BME280;30544;42.196;24.336;2024-02-21T05:46:35;99862.63;;;10.11;69.31
26376;BME280;30544;42.196;24.336;2024-02-21T05:49:02;99867.47;;;10.15;69.36
26376;BME280;30544;42.196;24.336;2024-02-21T05:51:31;99875.50;;;10.23;69.78
26376;BME280;30544;42.196;24.336;2024-02-21T05:53:58;99878.09;;;10.25;68.87
26376;BME280;30544;42.196;24.336;2024-02-21T05:56:25;99878.94;;;10.26;68.97
26376;BME280;30544;42.196;24.336;2024-02-21T05:58:51;99881.47;;;10.27;68.49
26376;BME280;30544;42.196;24.336;2024-02-21T06:01:18;99892.72;;;10.32;68.05
26376;BME280;30544;42.196;24.336;2024-02-21T06:03:46;99879.69;;;10.33;68.26
26376;BME280;30544;42.196;24.336;2024-02-21T06:06:12;99879.84;;;10.38;67.70
26376;BME280;30544;42.196;24.336;2024-02-21T06:08:40;99887.88;;;10.46;68.12
26376;BME280;30544;42.196;24.336;2024-02-21T06:11:07;99885.25;;;10.51;67.77
26376;BME280;30544;42.196;24.336;2024-02-21T06:13:37;99888.09;;;10.63;67.40
26376;BME280;30544;42.196;24.336;2024-02-21T06:16:04;99892.63;;;10.75;67.07
26376;BME280;30544;42.196;24.336;2024-02-21T06:18:31;99898.09;;;10.82;67.27
26376;BME280;30544;42.196;24.336;2024-02-21T06:20:57;99895.47;;;10.87;67.31
26376;BME280;30544;42.196;24.336;2024-02-21T06:23:24;99891.59;;;10.88;67.03
26376;BME280;30544;42.196;24.336;2024-02-21T06:25:52;99898.41;;;10.92;66.40
26376;BME280;30544;42.196;24.336;2024-02-21T06:28:19;99910.34;;;10.93;67.03
26376;BME280;30544;42.196;24.336;2024-02-21T06:30:45;99906.00;;;10.97;66.74
26376;BME280;30544;42.196;24.336;2024-02-21T06:33:12;99908.09;;;11.01;67.48
26376;BME280;30544;42.196;24.336;2024-02-21T06:35:38;99905.00;;;11.09;67.04
26376;BME280;30544;42.196;24.336;2024-02-21T06:38:07;99912.97;;;11.18;66.91
26376;BME280;30544;42.196;24.336;2024-02-21T06:40:34;99914.56;;;11.25;66.65
26376;BME280;30544;42.196;24.336;2024-02-21T06:43:05;99919.44;;;11.30;66.04
26376;BME280;30544;42.196;24.336;2024-02-21T06:45:32;99924.03;;;11.36;65.43
26376;BME280;30544;42.196;24.336;2024-02-21T06:47:58;99918.16;;;11.44;65.04
26376;BME280;30544;42.196;24.336;2024-02-21T06:50:25;99919.88;;;11.57;65.16
26376;BME280;30544;42.196;24.336;2024-02-21T06:52:51;99919.91;;;11.68;64.81
26376;BME280;30544;42.196;24.336;2024-02-21T06:55:18;99927.47;;;11.80;64.48
26376;BME280;30544;42.196;24.336;2024-02-21T06:57:45;99921.91;;;11.91;63.92
26376;BME280;30544;42.196;24.336;2024-02-21T07:00:15;99925.56;;;12.03;63.44
26376;BME280;30544;42.196;24.336;2024-02-21T07:02:42;99919.25;;;12.08;62.91
26376;BME280;30544;42.196;24.336;2024-02-21T07:05:08;99918.78;;;12.23;62.62
26376;BME280;30544;42.196;24.336;2024-02-21T07:07:35;99922.91;;;12.32;60.77
26376;BME280;30544;42.196;24.336;2024-02-21T07:10:01;99928.09;;;12.40;59.95
26376;BME280;30544;42.196;24.336;2024-02-21T07:12:29;99919.84;;;12.57;59.55
26376;BME280;30544;42.196;24.336;2024-02-21T07:14:56;99924.06;;;12.71;58.95
26376;BME280;30544;42.196;24.336;2024-02-21T07:17:24;99924.66;;;12.85;59.08
26376;BME280;30544;42.196;24.336;2024-02-21T07:19:50;99922.25;;;12.77;58.39
26376;BME280;30544;42.196;24.336;2024-02-21T07:22:17;99914.50;;;12.79;58.55
26376;BME280;30544;42.196;24.336;2024-02-21T07:24:43;99925.72;;;12.95;58.19
26376;BME280;30544;42.196;24.336;2024-02-21T07:27:10;99919.84;;;13.09;57.36
26376;BME280;30544;42.196;24.336;2024-02-21T07:29:36;99925.19;;;13.10;57.83
26376;BME280;30544;42.196;24.336;2024-02-21T07:32:03;99920.69;;;13.21;57.42
26376;BME280;30544;42.196;24.336;2024-02-21T07:34:31;99932.75;;;12.86;56.61
26376;BME280;30544;42.196;24.336;2024-02-21T07:36:58;99931.50;;;13.06;56.63
26376;BME280;30544;42.196;24.336;2024-02-21T07:39:24;99935.03;;;12.89;55.25
26376;BME280;30544;42.196;24.336;2024-02-21T07:41:51;99924.03;;;12.94;55.63
26376;BME280;30544;42.196;24.336;2024-02-21T07:44:17;99928.84;;;13.11;54.88
26376;BME280;30544;42.196;24.336;2024-02-21T07:46:44;99933.66;;;13.15;55.50
26376;BME280;30544;42.196;24.336;2024-02-21T07:49:10;99934.63;;;13.21;54.45
26376;BME280;30544;42.196;24.336;2024-02-21T07:51:38;99926.63;;;13.13;54.30
26376;BME280;30544;42.196;24.336;2024-02-21T07:54:05;99926.59;;;13.24;54.48
26376;BME280;30544;42.196;24.336;2024-02-21T07:56:31;99915.56;;;12.89;54.99
26376;BME280;30544;42.196;24.336;2024-02-21T07:58:58;99924.13;;;13.00;54.53
26376;BME280;30544;42.196;24.336;2024-02-21T08:01:24;99920.25;;;13.01;54.14
26376;BME280;30544;42.196;24.336;2024-02-21T08:03:51;99914.34;;;12.97;54.29
26376;BME280;30544;42.196;24.336;2024-02-21T08:06:17;99917.47;;;13.01;54.46
26376;BME280;30544;42.196;24.336;2024-02-21T08:08:45;99919.75;;;13.04;53.85
26376;BME280;30544;42.196;24.336;2024-02-21T08:11:11;99918.75;;;13.21;53.70
26376;BME280;30544;42.196;24.336;2024-02-21T08:13:38;99911.00;;;13.23;54.26
26376;BME280;30544;42.196;24.336;2024-02-21T08:16:05;99909.34;;;13.39;53.54
26376;BME280;30544;42.196;24.336;2024-02-21T08:18:31;99907.34;;;13.51;53.51
26376;BME280;30544;42.196;24.336;2024-02-21T08:21:01;99905.00;;;13.60;53.12
26376;BME280;30544;42.196;24.336;2024-02-21T08:23:27;99906.84;;;13.54;52.88
26376;BME280;30544;42.196;24.336;2024-02-21T08:25:55;99906.19;;;13.64;52.82
26376;BME280;30544;42.196;24.336;2024-02-21T08:28:22;99902.47;;;13.75;52.41
26376;BME280;30544;42.196;24.336;2024-02-21T08:30:48;99915.56;;;13.75;50.84
26376;BME280;30544;42.196;24.336;2024-02-21T08:33:15;99903.00;;;13.89;50.47
26376;BME280;30544;42.196;24.336;2024-02-21T08:35:42;99904.16;;;13.93;50.45
26376;BME280;30544;42.196;24.336;2024-02-21T08:38:09;99903.44;;;13.98;49.51
26376;BME280;30544;42.196;24.336;2024-02-21T08:40:35;99910.25;;;14.24;50.30
26376;BME280;30544;42.196;24.336;2024-02-21T08:43:03;99914.31;;;14.50;50.08
26376;BME280;30544;42.196;24.336;2024-02-21T08:45:30;99911.03;;;14.74;49.96
26376;BME280;30544;42.196;24.336;2024-02-21T08:47:56;99902.22;;;14.83;49.10
26376;BME280;30544;42.196;24.336;2024-02-21T08:50:23;99900.00;;;15.07;49.25
26376;BME280;30544;42.196;24.336;2024-02-21T08:52:49;99907.66;;;15.16;48.67
26376;BME280;30544;42.196;24.336;2024-02-21T08:55:16;99906.03;;;15.20;48.34
26376;BME280;30544;42.196;24.336;2024-02-21T08:57:42;99906.50;;;15.39;47.98
26376;BME280;30544;42.196;24.336;2024-02-21T09:00:11;99905.25;;;15.52;48.10
26376;BME280;30544;42.196;24.336;2024-02-21T09:02:39;99909.16;;;15.51;47.75
26376;BME280;30544;42.196;24.336;2024-02-21T09:05:06;99899.13;;;15.55;47.34
26376;BME280;30544;42.196;24.336;2024-02-21T09:07:33;99897.22;;;15.33;46.65
26376;BME280;30544;42.196;24.336;2024-02-21T09:10:00;99895.19;;;15.51;46.20
26376;BME280;30544;42.196;24.336;2024-02-21T09:12:26;99900.88;;;15.61;45.77
26376;BME280;30544;42.196;24.336;2024-02-21T09:14:53;99899.00;;;15.67;45.72
26376;BME280;30544;42.196;24.336;2024-02-21T09:17:21;99901.34;;;15.53;43.26
26376;BME280;30544;42.196;24.336;2024-02-21T09:19:48;99895.31;;;15.61;42.75
26376;BME280;30544;42.196;24.336;2024-02-21T09:22:14;99895.22;;;15.56;42.44
26376;BME280;30544;42.196;24.336;2024-02-21T09:24:41;99894.28;;;15.18;43.47
26376;BME280;30544;42.196;24.336;2024-02-21T09:27:07;99882.03;;;15.24;43.94
26376;BME280;30544;42.196;24.336;2024-02-21T09:29:34;99891.13;;;15.37;42.66
26376;BME280;30544;42.196;24.336;2024-02-21T09:32:01;99888.28;;;15.31;42.31
26376;BME280;30544;42.196;24.336;2024-02-21T09:34:30;99887.09;;;15.27;41.40
26376;BME280;30544;42.196;24.336;2024-02-21T09:36:56;99901.28;;;15.21;40.18
26376;BME280;30544;42.196;24.336;2024-02-21T09:39:23;99884.06;;;15.29;39.70
26376;BME280;30544;42.196;24.336;2024-02-21T09:41:50;99890.41;;;15.24;40.39
26376;BME280;30544;42.196;24.336;2024-02-21T09:44:20;99890.94;;;15.21;40.28
26376;BME280;30544;42.196;24.336;2024-02-21T09:46:50;99880.56;;;15.17;41.05
26376;BME280;30544;42.196;24.336;2024-02-21T09:49:21;99867.19;;;15.46;40.52
26376;BME280;30544;42.196;24.336;2024-02-21T09:51:53;99869.63;;;15.64;40.47
26376;BME280;30544;42.196;24.336;2024-02-21T09:54:21;99869.78;;;15.79;39.95
26376;BME280;30544;42.196;24.336;2024-02-21T09:56:48;99875.13;;;15.86;40.30
26376;BME280;30544;42.196;24.336;2024-02-21T09:59:14;99864.81;;;15.91;39.30
26376;BME280;30544;42.196;24.336;2024-02-21T10:01:41;99869.41;;;15.71;39.41
26376;BME280;30544;42.196;24.336;2024-02-21T10:04:08;99869.78;;;15.57;39.63
26376;BME280;30544;42.196;24.336;2024-02-21T10:06:35;99868.97;;;15.57;40.15
26376;BME280;30544;42.196;24.336;2024-02-21T10:09:03;99864.44;;;15.51;39.23
26376;BME280;30544;42.196;24.336;2024-02-21T10:11:30;99858.06;;;15.28;40.00
26376;BME280;30544;42.196;24.336;2024-02-21T10:14:03;99859.41;;;15.26;39.24
26376;BME280;30544;42.196;24.336;2024-02-21T10:16:30;99847.84;;;15.44;39.63
26376;BME280;30544;42.196;24.336;2024-02-21T10:18:56;99851.34;;;15.56;39.24
26376;BME280;30544;42.196;24.336;2024-02-21T10:21:23;99841.59;;;15.59;39.29
26376;BME280;30544;42.196;24.336;2024-02-21T10:23:49;99837.84;;;15.48;39.84
26376;BME280;30544;42.196;24.336;2024-02-21T10:26:18;99849.03;;;15.48;39.60
26376;BME280;30544;42.196;24.336;2024-02-21T10:28:45;99829.81;;;15.57;40.04
26376;BME280;30544;42.196;24.336;2024-02-21T10:31:20;99838.94;;;15.74;39.60
26376;BME280;30544;42.196;24.336;2024-02-21T10:33:53;99829.50;;;15.80;39.59
26376;BME280;30544;42.196;24.336;2024-02-21T10:36:19;99817.84;;;15.93;39.88
26376;BME280;30544;42.196;24.336;2024-02-21T10:38:46;99809.84;;;16.12;40.40
26376;BME280;30544;42.196;24.336;2024-02-21T10:41:13;99808.81;;;16.29;39.50
26376;BME280;30544;42.196;24.336;2024-02-21T10:43:42;99808.59;;;16.30;39.60
26376;BME280;30544;42.196;24.336;2024-02-21T10:46:12;99807.66;;;16.14;39.71
26376;BME280;30544;42.196;24.336;2024-02-21T10:48:42;99800.94;;;16.15;39.26
26376;BME280;30544;42.196;24.336;2024-02-21T10:51:14;99794.94;;;15.97;38.51
26376;BME280;30544;42.196;24.336;2024-02-21T10:53:43;99796.22;;;16.21;38.88
26376;BME280;30544;42.196;24.336;2024-02-21T10:56:16;99786.84;;;16.47;37.91
26376;BME280;30544;42.196;24.336;2024-02-21T10:58:49;99783.84;;;16.64;38.06
26376;BME280;30544;42.196;24.336;2024-02-21T11:01:17;99778.22;;;16.64;36.86
26376;BME280;30544;42.196;24.336;2024-02-21T11:03:44;99773.97;;;16.51;36.59
26376;BME280;30544;42.196;24.336;2024-02-21T11:06:12;99765.88;;;16.60;36.60
26376;BME280;30544;42.196;24.336;2024-02-21T11:08:38;99760.06;;;16.72;36.53
26376;BME280;30544;42.196;24.336;2024-02-21T11:11:05;99771.19;;;16.62;35.95
26376;BME280;30544;42.196;24.336;2024-02-21T11:13:32;99764.19;;;16.54;35.81
26376;BME280;30544;42.196;24.336;2024-02-21T11:16:10;99763.28;;;16.43;36.13
26376;BME280;30544;42.196;24.336;2024-02-21T11:18:37;99764.09;;;16.34;36.79
26376;BME280;30544;42.196;24.336;2024-02-21T11:21:04;99765.50;;;16.31;36.75
26376;BME280;30544;42.196;24.336;2024-02-21T11:23:30;99766.91;;;16.44;36.83
26376;BME280;30544;42.196;24.336;2024-02-21T11:26:03;99759.06;;;16.36;36.94
26376;BME280;30544;42.196;24.336;2024-02-21T11:28:31;99762.22;;;16.49;36.96
26376;BME280;30544;42.196;24.336;2024-02-21T11:31:05;99758.25;;;16.45;36.58
26376;BME280;30544;42.196;24.336;2024-02-21T11:33:34;99756.91;;;16.53;37.12
26376;BME280;30544;42.196;24.336;2024-02-21T11:36:00;99744.00;;;16.47;35.97
26376;BME280;30544;42.196;24.336;2024-02-21T11:38:29;99750.44;;;16.47;36.47
26376;BME280;30544;42.196;24.336;2024-02-21T11:40:56;99742.19;;;16.83;35.79
26376;BME280;30544;42.196;24.336;2024-02-21T11:43:23;99743.09;;;17.19;35.72
26376;BME280;30544;42.196;24.336;2024-02-21T11:45:50;99737.75;;;17.43;34.96
26376;BME280;30544;42.196;24.336;2024-02-21T11:48:17;99732.44;;;17.57;34.66
26376;BME280;30544;42.196;24.336;2024-02-21T11:50:53;99732.72;;;17.76;34.45
26376;BME280;30544;42.196;24.336;2024-02-21T11:53:21;99736.09;;;17.72;34.58
26376;BME280;30544;42.196;24.336;2024-02-21T11:55:47;99727.13;;;17.86;33.83
26376;BME280;30544;42.196;24.336;2024-02-21T11:58:14;99722.63;;;17.80;33.62
26376;BME280;30544;42.196;24.336;2024-02-21T12:00:41;99715.06;;;17.75;33.79
26376;BME280;30544;42.196;24.336;2024-02-21T12:03:08;99717.84;;;17.85;33.85
26376;BME280;30544;42.196;24.336;2024-02-21T12:05:34;99718.13;;;17.43;33.77
26376;BME280;30544;42.196;24.336;2024-02-21T12:08:02;99718.16;;;17.33;33.93
26376;BME280;30544;42.196;24.336;2024-02-21T12:10:30;99708.59;;;17.64;33.34
26376;BME280;30544;42.196;24.336;2024-02-21T12:13:04;99706.63;;;17.29;33.15
26376;BME280;30544;42.196;24.336;2024-02-21T12:15:31;99694.31;;;17.51;33.02
26376;BME280;30544;42.196;24.336;2024-02-21T12:17:58;99695.16;;;17.56;33.18
26376;BME280;30544;42.196;24.336;2024-02-21T12:20:25;99691.78;;;17.54;33.18
26376;BME280;30544;42.196;24.336;2024-02-21T12:22:52;99685.59;;;17.67;32.95
26376;BME280;30544;42.196;24.336;2024-02-21T12:25:21;99676.63;;;17.60;33.48
26376;BME280;30544;42.196;24.336;2024-02-21T12:27:51;99678.34;;;17.51;32.94
26376;BME280;30544;42.196;24.336;2024-02-21T12:30:17;99683.66;;;17.42;32.55
26376;BME280;30544;42.196;24.336;2024-02-21T12:32:46;99672.44;;;17.37;33.32
26376;BME280;30544;42.196;24.336;2024-02-21T12:35:13;99674.41;;;17.11;33.05
26376;BME280;30544;42.196;24.336;2024-02-21T12:37:40;99672.47;;;17.02;33.22
26376;BME280;30544;42.196;24.336;2024-02-21T12:40:08;99664.06;;;16.97;33.00
26376;BME280;30544;42.196;24.336;2024-02-21T12:42:37;99672.44;;;16.92;33.59
26376;BME280;30544;42.196;24.336;2024-02-21T12:45:03;99664.03;;;16.87;33.43
26376;BME280;30544;42.196;24.336;2024-02-21T12:47:30;99664.59;;;16.94;33.53
26376;BME280;30544;42.196;24.336;2024-02-21T12:49:57;99666.56;;;16.83;33.11
26376;BME280;30544;42.196;24.336;2024-02-21T12:52:23;99658.72;;;17.05;33.15
26376;BME280;30544;42.196;24.336;2024-02-21T12:54:50;99668.25;;;16.99;33.69